Time;durP1;ratioP1;P1;durP2;ratioP2;P2;SDS_P1;SDS_P2;PMS_P1;PMS_P2;Temp;Humidity;BMP_temperature;BMP_pressure;BME280_temperature;BME280_humidity;BME280_pressure;Samples;Min_cycle;Max_cycle;Signal;HPM_P1;HPM_P2
2022/06/10 00:01:08;;;;;;;5.60;3.90;;;;;;;20.52;47.14;101726.72;5048874;28;20084;-89
2022/06/10 00:03:35;;;;;;;4.75;3.55;;;;;;;20.50;47.36;101723.25;5048522;28;20055;-89
2022/06/10 00:06:05;;;;;;;6.03;3.60;;;;;;;20.51;47.35;101717.56;5052833;28;20044;-89
2022/06/10 00:08:35;;;;;;;6.63;4.10;;;;;;;20.51;47.47;101719.44;5047860;28;20042;-89
2022/06/10 00:11:04;;;;;;;5.15;3.72;;;;;;;20.47;47.14;101723.53;5046309;28;20045;-88
2022/06/10 00:13:33;;;;;;;5.32;3.75;;;;;;;20.48;47.43;101725.28;5044742;28;20061;-88
2022/06/10 00:16:00;;;;;;;5.13;3.70;;;;;;;20.45;47.19;101726.44;5044795;28;20410;-88
2022/06/10 00:18:30;;;;;;;5.13;3.60;;;;;;;20.46;47.37;101728.19;5047723;28;20132;-89
2022/06/10 00:20:57;;;;;;;4.45;3.72;;;;;;;20.43;47.50;101722.06;5050637;28;20682;-89
2022/06/10 00:23:24;;;;;;;4.47;3.78;;;;;;;20.41;47.21;101721.38;5046197;28;20156;-89
2022/06/10 00:25:50;;;;;;;6.10;3.72;;;;;;;20.40;47.42;101720.50;5043210;28;20076;-88
2022/06/10 00:28:18;;;;;;;4.70;3.65;;;;;;;20.39;47.43;101721.50;5042232;28;20053;-89
2022/06/10 00:30:45;;;;;;;5.47;3.72;;;;;;;20.38;47.36;101717.00;5044273;28;20111;-88
2022/06/10 00:33:12;;;;;;;5.13;3.80;;;;;;;20.37;47.52;101715.25;5044563;28;20049;-88
2022/06/10 00:35:41;;;;;;;6.57;4.00;;;;;;;20.37;47.64;101719.91;5042524;28;20127;-88
2022/06/10 00:38:08;;;;;;;7.03;4.28;;;;;;;20.33;47.66;101716.53;5045544;28;20059;-89
2022/06/10 00:40:43;;;;;;;5.07;4.38;;;;;;;20.35;47.70;101724.69;5043005;28;20041;-89
2022/06/10 00:43:15;;;;;;;6.00;4.00;;;;;;;20.34;47.95;101722.97;5042754;28;20131;-89
2022/06/10 00:45:50;;;;;;;6.60;4.30;;;;;;;20.30;47.54;101718.72;5048054;28;20072;-89
2022/06/10 00:48:25;;;;;;;6.20;4.13;;;;;;;20.30;47.69;101718.72;5044082;28;20372;-89
2022/06/10 00:50:53;;;;;;;4.72;3.65;;;;;;;20.25;47.51;101713.63;5043269;28;20049;-89
2022/06/10 00:53:25;;;;;;;6.40;3.85;;;;;;;20.26;47.62;101717.28;5039874;28;20049;-88
2022/06/10 00:55:55;;;;;;;6.32;4.20;;;;;;;20.22;47.63;101718.56;5046454;28;20056;-88
2022/06/10 00:58:31;;;;;;;5.78;4.30;;;;;;;20.20;47.25;101720.56;5048818;28;20088;-88
2022/06/10 01:01:00;;;;;;;6.20;4.43;;;;;;;20.19;47.48;101721.59;5046384;28;20140;-88
2022/06/10 01:03:27;;;;;;;6.72;4.55;;;;;;;20.15;47.47;101715.50;5039880;28;20049;-88
2022/06/10 01:05:54;;;;;;;5.22;4.25;;;;;;;20.14;47.12;101716.53;5045083;28;20500;-89
2022/06/10 01:08:22;;;;;;;6.07;4.40;;;;;;;20.12;47.27;101713.91;5046382;28;20146;-88
2022/06/10 01:11:18;;;;;;;5.78;4.60;;;;;;;20.13;47.44;101718.41;5042043;28;20411;-89
2022/06/10 01:13:53;;;;;;;6.00;4.65;;;;;;;20.09;47.95;101718.84;5022636;28;20045;-89
2022/06/10 01:16:25;;;;;;;6.22;4.50;;;;;;;20.08;47.72;101719.84;5047848;28;20156;-89
2022/06/10 01:19:04;;;;;;;6.15;4.82;;;;;;;20.04;47.83;101712.88;5040485;28;20048;-89
2022/06/10 01:21:56;;;;;;;5.63;4.25;;;;;;;20.03;47.68;101722.16;5042079;28;20545;-89
2022/06/10 01:24:36;;;;;;;7.13;4.65;;;;;;;20.00;47.65;101717.81;5041105;28;20483;-89
2022/06/10 01:30:35;;;;;;;5.90;4.32;;;;;;;19.98;48.25;101713.44;5042356;28;20061;-88
2022/06/10 01:33:24;;;;;;;5.28;3.97;;;;;;;19.96;48.12;101713.59;5038572;28;20254;-89
2022/06/10 01:36:35;;;;;;;5.65;4.65;;;;;;;19.88;47.91;101726.34;5050241;28;20053;-88
2022/06/10 01:39:11;;;;;;;5.45;4.05;;;;;;;19.93;48.01;101718.53;5005196;28;20496;-88
2022/06/10 01:41:47;;;;;;;6.85;4.50;;;;;;;19.93;47.92;101726.81;5040445;28;20551;-88
2022/06/10 01:44:19;;;;;;;5.57;4.22;;;;;;;19.90;47.92;101722.44;5036512;28;20057;-89
2022/06/10 01:46:58;;;;;;;5.45;4.40;;;;;;;19.91;48.11;101715.91;5044605;28;20051;-88
2022/06/10 01:49:30;;;;;;;6.75;4.28;;;;;;;19.91;47.82;101723.31;5042501;28;20053;-88
2022/06/10 01:52:13;;;;;;;5.27;4.10;;;;;;;19.91;48.04;101720.56;5048963;28;20079;-88
2022/06/10 01:55:04;;;;;;;6.45;5.10;;;;;;;19.87;48.13;101727.34;5047222;28;20083;-88
2022/06/10 01:57:57;;;;;;;5.25;4.45;;;;;;;19.90;48.37;101719.69;5039246;28;20079;-88
2022/06/10 02:00:26;;;;;;;;;;;;;;;19.61;48.50;101729.72;5046411;28;20642;-89
2022/06/10 02:03:03;;;;;;;5.53;4.53;;;;;;;19.86;48.30;101723.72;5063539;28;20343;-88
2022/06/10 02:05:36;;;;;;;6.45;4.68;;;;;;;19.87;47.77;101728.22;5046892;28;20115;-88
2022/06/10 02:08:14;;;;;;;5.88;4.38;;;;;;;19.88;48.12;101729.09;5038868;28;20076;-88
2022/06/10 02:10:54;;;;;;;6.38;4.50;;;;;;;19.88;48.18;101727.22;5044985;28;20045;-87
2022/06/10 02:13:30;;;;;;;6.22;4.60;;;;;;;19.87;47.89;101736.47;5038942;28;20057;-88
2022/06/10 02:16:02;;;;;;;6.65;4.10;;;;;;;19.86;48.26;101736.63;5025219;28;20045;-88
2022/06/10 02:18:50;;;;;;;7.47;4.67;;;;;;;19.84;48.32;101735.91;5040582;28;20048;-88
2022/06/10 02:22:12;;;;;;;7.32;4.35;;;;;;;19.82;48.15;101740.69;5039096;28;20350;-88
2022/06/10 02:24:58;;;;;;;6.38;4.50;;;;;;;19.81;48.41;101748.09;4954502;28;20141;-88
2022/06/10 02:27:29;;;;;;;5.95;4.25;;;;;;;19.81;48.35;101745.31;5035574;28;20060;-88
2022/06/10 02:30:05;;;;;;;5.20;4.10;;;;;;;19.80;47.92;101745.47;5047136;28;20052;-88
2022/06/10 02:32:34;;;;;;;5.32;4.28;;;;;;;19.79;48.29;101750.09;5048849;28;20123;-88
2022/06/10 02:35:01;;;;;;;5.65;4.22;;;;;;;19.76;47.85;101744.88;5046432;28;20095;-88
2022/06/10 02:37:46;;;;;;;6.47;4.68;;;;;;;19.75;47.96;101751.41;5048566;28;20057;-88
2022/06/10 02:40:39;;;;;;;5.65;4.22;;;;;;;19.73;47.78;101753.41;5048060;28;20055;-88
2022/06/10 02:43:20;;;;;;;5.88;3.95;;;;;;;19.73;48.18;101767.19;5030017;28;20095;-88
2022/06/10 02:46:07;;;;;;;6.05;4.20;;;;;;;19.73;48.33;101756.19;5046858;28;20381;-87
2022/06/10 02:49:05;;;;;;;7.30;4.68;;;;;;;19.72;48.45;101759.94;5046549;28;20052;-88
2022/06/10 02:51:32;;;;;;;5.80;4.25;;;;;;;19.67;47.88;101754.88;5041618;28;20051;-88
2022/06/10 02:54:00;;;;;;;6.13;4.55;;;;;;;19.67;47.60;101757.63;5047479;28;20160;-87
2022/06/10 02:56:28;;;;;;;5.88;4.50;;;;;;;19.65;47.77;101759.63;5045947;28;20491;-88
2022/06/10 03:01:59;;;;;;;5.75;4.35;;;;;;;19.63;48.16;101758.88;5046709;28;20076;-88
2022/06/10 03:04:39;;;;;;;6.30;4.75;;;;;;;19.64;48.08;101762.53;5041637;28;20060;-88
2022/06/10 03:07:35;;;;;;;5.80;4.13;;;;;;;19.62;48.17;101756.28;5048813;28;20048;-88
2022/06/10 03:10:16;;;;;;;5.93;4.72;;;;;;;19.59;47.57;101762.94;5041199;28;20099;-88
2022/06/10 03:13:17;;;;;;;5.72;4.32;;;;;;;19.57;47.83;101766.84;5048022;28;20050;-88
2022/06/10 03:16:08;;;;;;;5.40;4.50;;;;;;;19.51;47.89;101772.91;5036568;28;20145;-88
2022/06/10 03:18:38;;;;;;;7.30;4.65;;;;;;;19.50;47.66;101769.28;5046215;28;20045;-88
2022/06/10 03:21:10;;;;;;;6.20;4.72;;;;;;;19.54;48.13;101769.88;5065537;28;20078;-88
2022/06/10 03:23:56;;;;;;;;;;;;;;;19.22;48.57;101761.69;5052571;28;20045;-89
2022/06/10 03:26:26;;;;;;;5.80;4.28;;;;;;;19.42;48.07;101773.69;5054439;28;19921;-87
2022/06/10 03:29:26;;;;;;;5.20;4.43;;;;;;;19.45;47.71;101779.78;5044089;28;20513;-88
2022/06/10 03:32:04;;;;;;;5.15;4.30;;;;;;;19.45;48.09;101774.28;5038435;28;20072;-88
2022/06/10 03:34:37;;;;;;;6.57;4.50;;;;;;;19.44;48.00;101779.91;5047784;28;20514;-88
2022/06/10 03:37:07;;;;;;;6.25;4.15;;;;;;;19.43;47.54;101778.22;5048382;28;20483;-88
2022/06/10 03:39:34;;;;;;;5.15;4.35;;;;;;;19.39;47.68;101781.22;5048669;28;20037;-88
2022/06/10 03:42:09;;;;;;;8.73;4.45;;;;;;;19.40;47.76;101782.09;5036372;28;20458;-88
2022/06/10 03:44:37;;;;;;;5.80;4.10;;;;;;;19.38;47.95;101784.09;5046163;28;20187;-88
2022/06/10 03:47:07;;;;;;;5.53;4.47;;;;;;;19.39;48.13;101783.09;5046086;28;20545;-88
2022/06/10 03:50:06;;;;;;;7.30;4.47;;;;;;;19.32;47.99;101793.78;5041649;28;20140;-87
2022/06/10 03:52:36;;;;;;;6.57;4.60;;;;;;;19.34;47.79;101791.78;5047881;28;20073;-87
2022/06/10 03:55:05;;;;;;;6.30;4.60;;;;;;;19.32;47.60;101791.03;5043709;28;20049;-88
2022/06/10 03:57:32;;;;;;;5.30;4.53;;;;;;;19.31;47.74;101788.41;5035340;28;20049;-87
2022/06/10 03:59:58;;;;;;;6.93;4.80;;;;;;;19.29;47.59;101796.81;5048092;28;20057;-87
2022/06/10 04:02:25;;;;;;;6.18;4.78;;;;;;;19.29;48.00;101790.44;5046087;28;20045;-87
2022/06/10 04:04:52;;;;;;;6.97;4.50;;;;;;;19.28;47.76;101797.81;5046216;28;20133;-88
2022/06/10 04:07:20;;;;;;;5.45;4.45;;;;;;;19.28;48.06;101808.84;5040331;28;20526;-88
2022/06/10 04:09:47;;;;;;;7.40;4.78;;;;;;;19.28;48.34;101800.56;5044448;28;20060;-88
2022/06/10 04:12:15;;;;;;;6.13;4.50;;;;;;;19.29;48.06;101812.47;5040605;28;20098;-88
2022/06/10 04:14:43;;;;;;;7.10;4.35;;;;;;;19.29;47.75;101806.94;5042242;28;20132;-87
2022/06/10 04:17:10;;;;;;;5.35;4.53;;;;;;;19.29;48.30;101810.59;5047319;28;20095;-87
2022/06/10 04:19:37;;;;;;;7.03;4.63;;;;;;;19.30;48.42;101812.34;5044149;28;20073;-88
2022/06/10 04:22:04;;;;;;;6.03;4.93;;;;;;;19.32;47.98;101814.94;5037186;28;20073;-87
2022/06/10 04:24:31;;;;;;;6.43;4.93;;;;;;;19.33;48.57;101816.69;5043660;28;20459;-88
2022/06/10 04:26:58;;;;;;;6.68;4.70;;;;;;;19.33;48.63;101817.56;5043729;28;20056;-87
2022/06/10 04:29:25;;;;;;;6.45;4.50;;;;;;;19.34;48.55;101819.31;5047230;28;20053;-86
2022/06/10 04:31:51;;;;;;;5.97;4.85;;;;;;;19.36;48.37;101821.91;5041188;28;20105;-87
2022/06/10 04:34:18;;;;;;;7.72;5.15;;;;;;;19.38;48.67;101814.41;5044154;28;20480;-87
2022/06/10 04:36:45;;;;;;;7.65;5.88;;;;;;;19.39;48.37;101819.78;5042363;28;20088;-86
2022/06/10 04:39:11;;;;;;;7.40;5.70;;;;;;;19.40;48.83;101812.38;5044247;28;20105;-85
2022/06/10 04:41:39;;;;;;;8.00;5.72;;;;;;;19.42;48.72;101818.66;5044285;28;20077;-84
2022/06/10 04:44:06;;;;;;;7.68;5.07;;;;;;;19.44;49.00;101815.72;5047607;28;20472;-84
2022/06/10 04:46:39;;;;;;;7.43;5.13;;;;;;;19.49;48.85;101819.00;5054342;28;20603;-85
2022/06/10 04:49:07;;;;;;;7.35;5.07;;;;;;;19.48;49.03;101817.25;5051029;28;20064;-86
2022/06/10 04:51:35;;;;;;;5.85;4.88;;;;;;;19.52;48.68;101822.34;5042364;28;20472;-88
2022/06/10 04:54:04;;;;;;;6.60;5.03;;;;;;;19.53;48.98;101820.44;5039426;28;20072;-85
2022/06/10 04:56:31;;;;;;;7.18;4.60;;;;;;;19.55;49.26;101824.81;5035582;28;20144;-86
2022/06/10 04:58:58;;;;;;;6.75;4.90;;;;;;;19.57;49.30;101821.94;5040057;28;20049;-88
2022/06/10 05:01:24;;;;;;;6.15;4.75;;;;;;;19.60;49.09;101833.53;5041411;28;20052;-89
2022/06/10 05:03:51;;;;;;;6.97;4.47;;;;;;;19.64;49.52;101828.63;5047838;28;20107;-87
2022/06/10 05:06:18;;;;;;;6.95;4.65;;;;;;;19.67;49.47;101822.88;5032767;28;20044;-89
2022/06/10 05:08:45;;;;;;;5.57;4.20;;;;;;;19.73;49.65;101825.06;5049227;28;20456;-88
2022/06/10 05:11:14;;;;;;;4.95;3.97;;;;;;;19.78;49.24;101820.00;5050678;28;20136;-88
2022/06/10 05:13:40;;;;;;;5.38;3.80;;;;;;;19.85;49.45;101829.44;5041350;28;20086;-88
2022/06/10 05:16:07;;;;;;;6.63;4.40;;;;;;;19.90;49.18;101824.41;5045850;28;20077;-88
2022/06/10 05:18:34;;;;;;;5.90;4.00;;;;;;;19.95;49.31;101822.09;5046319;28;20056;-89
2022/06/10 05:21:01;;;;;;;5.60;4.38;;;;;;;20.00;49.26;101819.81;5041620;28;20049;-90
2022/06/10 05:23:28;;;;;;;6.15;4.15;;;;;;;20.04;49.24;101824.03;5045861;28;20051;-88
2022/06/10 05:25:55;;;;;;;5.80;3.72;;;;;;;20.08;49.30;101821.88;5048161;28;20049;-88
2022/06/10 05:28:23;;;;;;;7.40;4.13;;;;;;;20.13;49.37;101825.94;5043063;28;20042;-88
2022/06/10 05:30:49;;;;;;;6.00;3.83;;;;;;;20.16;49.11;101826.69;5042253;28;20052;-88
2022/06/10 05:33:17;;;;;;;7.13;3.88;;;;;;;20.21;48.96;101832.63;5033979;28;20479;-89
2022/06/10 05:35:44;;;;;;;6.03;3.67;;;;;;;20.22;48.95;101832.50;5048922;28;20057;-88
2022/06/10 05:38:12;;;;;;;6.10;3.67;;;;;;;20.25;48.97;101831.34;5048690;28;20056;-88
2022/06/10 05:40:39;;;;;;;5.78;3.30;;;;;;;20.27;48.61;101826.53;5045562;28;20450;-89
2022/06/10 05:43:06;;;;;;;6.30;3.60;;;;;;;20.28;49.08;101828.28;5040972;28;20087;-83
2022/06/10 05:45:40;;;;;;;7.07;3.83;;;;;;;20.28;48.83;101825.53;5044607;28;20599;-85
2022/06/10 05:48:07;;;;;;;5.28;3.30;;;;;;;20.32;48.76;101832.53;5037980;28;20071;-85
2022/06/10 05:50:37;;;;;;;5.22;3.33;;;;;;;20.34;48.33;101831.38;5042539;28;20049;-86
2022/06/10 05:53:08;;;;;;;5.45;3.20;;;;;;;20.35;48.39;101833.13;5041465;28;20044;-87
2022/06/10 05:55:36;;;;;;;5.25;3.20;;;;;;;20.34;48.54;101834.13;5045426;28;20118;-86
2022/06/10 05:58:10;;;;;;;6.10;3.15;;;;;;;20.36;49.00;101842.28;5043534;28;20463;-87
2022/06/10 06:00:36;;;;;;;6.28;3.20;;;;;;;20.36;48.72;101839.50;5042351;28;20132;-88
2022/06/10 06:03:03;;;;;;;4.65;3.25;;;;;;;20.37;48.86;101842.13;5035750;28;20120;-87
2022/06/10 06:05:32;;;;;;;7.25;3.47;;;;;;;20.38;48.84;101846.66;5046843;28;20063;-87
2022/06/10 06:07:58;;;;;;;5.20;3.42;;;;;;;20.39;49.23;101847.53;5043352;28;20048;-87
2022/06/10 06:10:27;;;;;;;5.55;3.05;;;;;;;20.42;49.03;101852.75;5041333;28;20053;-86
2022/06/10 06:12:55;;;;;;;4.90;2.97;;;;;;;20.40;48.51;101858.41;5038944;28;20110;-85
2022/06/10 06:15:22;;;;;;;6.00;3.22;;;;;;;20.41;48.99;101851.88;5044028;28;20087;-87
2022/06/10 06:17:51;;;;;;;4.30;2.90;;;;;;;20.44;48.59;101861.75;5042660;28;20299;-90
2022/06/10 06:20:20;;;;;;;3.72;2.58;;;;;;;20.44;48.72;101862.63;5044254;28;20060;-88
2022/06/10 06:22:47;;;;;;;6.82;3.05;;;;;;;20.45;48.30;101857.97;5046925;28;20350;-88
2022/06/10 06:25:15;;;;;;;5.00;2.95;;;;;;;20.46;48.57;101866.13;5044531;28;20037;-90
2022/06/10 06:27:44;;;;;;;6.78;3.05;;;;;;;20.47;48.10;101858.72;5036140;28;20188;-89
2022/06/10 06:30:21;;;;;;;3.67;2.65;;;;;;;20.50;47.69;101861.19;5043385;28;20053;-90
2022/06/10 06:32:48;;;;;;;6.22;2.67;;;;;;;20.46;48.69;101859.72;5048211;28;20052;-90
2022/06/10 06:35:15;;;;;;;4.95;2.58;;;;;;;20.47;48.15;101862.34;5045613;28;20052;-90
2022/06/10 06:37:43;;;;;;;4.32;2.70;;;;;;;20.49;48.22;101864.97;5046733;28;20067;-89
2022/06/10 06:40:11;;;;;;;4.00;2.50;;;;;;;20.50;48.27;101867.59;5045975;28;20049;-89
2022/06/10 06:42:39;;;;;;;6.55;3.10;;;;;;;20.50;47.86;101864.84;5051498;28;20106;-90
2022/06/10 06:45:06;;;;;;;4.93;2.80;;;;;;;20.51;47.68;101857.41;5054435;28;20041;-93
2022/06/10 06:47:53;;;;;;;5.68;2.60;;;;;;;20.51;48.49;101865.69;5061279;28;20041;-93
2022/06/10 06:50:24;;;;;;;3.88;2.50;;;;;;;20.57;47.89;101867.03;5065646;28;20064;-93
2022/06/10 06:52:52;;;;;;;4.53;2.58;;;;;;;20.56;48.34;101874.41;5073666;28;20033;-93
2022/06/10 06:55:20;;;;;;;6.75;3.05;;;;;;;20.58;48.31;101869.63;5075496;28;20462;-94
2022/06/10 06:57:49;;;;;;;4.68;2.80;;;;;;;20.60;48.22;101873.09;5067403;28;20084;-85
2022/06/10 07:00:17;;;;;;;6.43;2.90;;;;;;;20.64;48.30;101885.63;5060423;28;20045;-88
2022/06/10 07:02:44;;;;;;;5.10;2.60;;;;;;;20.66;47.92;101878.06;5055277;28;20045;-87
2022/06/10 07:05:12;;;;;;;4.80;2.50;;;;;;;20.70;47.89;101882.28;5052497;28;20081;-89
2022/06/10 07:07:41;;;;;;;4.07;2.30;;;;;;;20.75;48.25;101884.63;5056312;28;20048;-93
2022/06/10 07:10:12;;;;;;;5.88;2.47;;;;;;;20.79;48.19;101892.47;5055702;28;20057;-90
2022/06/10 07:12:38;;;;;;;3.55;2.30;;;;;;;20.80;47.70;101891.44;5043773;28;20207;-83
2022/06/10 07:15:06;;;;;;;4.85;2.22;;;;;;;20.85;47.65;101889.13;5041908;28;20045;-83
2022/06/10 07:17:34;;;;;;;4.28;2.45;;;;;;;20.88;47.84;101887.97;5034738;28;20123;-83
2022/06/10 07:20:03;;;;;;;3.60;2.30;;;;;;;20.92;47.42;101883.03;5038580;28;20072;-83
2022/06/10 07:22:30;;;;;;;5.13;2.20;;;;;;;20.94;47.80;101889.28;5036431;28;20077;-83
2022/06/10 07:24:56;;;;;;;4.35;2.58;;;;;;;20.97;47.86;101883.47;5045761;28;20076;-85
2022/06/10 07:27:23;;;;;;;6.45;2.60;;;;;;;21.00;47.98;101883.19;5043430;28;20127;-86
2022/06/10 07:30:04;;;;;;;4.00;2.08;;;;;;;21.05;48.27;101889.13;5041578;28;20045;-86
2022/06/10 07:32:31;;;;;;;3.88;2.17;;;;;;;21.08;47.90;101888.84;5041609;28;20079;-86
2022/06/10 07:34:57;;;;;;;4.07;1.77;;;;;;;21.13;47.74;101892.03;5037560;28;20041;-87
2022/06/10 07:37:24;;;;;;;3.90;2.30;;;;;;;21.17;48.17;101890.75;5052526;28;20061;-87
2022/06/10 07:39:51;;;;;;;3.22;2.15;;;;;;;21.22;47.69;101892.06;5040359;28;20092;-89
2022/06/10 07:42:18;;;;;;;4.35;2.20;;;;;;;21.28;47.50;101898.91;5046403;28;20049;-90
2022/06/10 07:44:45;;;;;;;3.85;2.00;;;;;;;21.33;47.91;101892.94;5048657;28;20468;-87
2022/06/10 07:47:14;;;;;;;4.45;2.28;;;;;;;21.41;48.03;101898.59;5051935;28;20049;-87
2022/06/10 07:49:41;;;;;;;4.18;2.10;;;;;;;21.46;48.27;101886.09;5054233;28;20044;-88
2022/06/10 07:52:09;;;;;;;5.43;2.10;;;;;;;21.54;48.08;101891.75;5040189;28;20081;-90
2022/06/10 07:54:37;;;;;;;4.05;1.90;;;;;;;21.61;47.85;101890.13;5041607;28;20038;-88
2022/06/10 07:57:06;;;;;;;4.10;1.80;;;;;;;21.71;47.85;101887.34;5065778;28;20136;-89
2022/06/10 07:59:34;;;;;;;4.90;1.70;;;;;;;21.78;47.97;101896.78;5038767;28;20492;-88
2022/06/10 08:02:00;;;;;;;4.53;1.65;;;;;;;21.87;47.63;101889.47;5048544;28;20052;-88
2022/06/10 08:04:27;;;;;;;3.80;1.75;;;;;;;21.96;47.86;101888.56;5044470;28;20044;-86
2022/06/10 08:06:54;;;;;;;3.72;1.60;;;;;;;22.07;47.48;101891.19;5047339;28;20057;-86
2022/06/10 08:09:23;;;;;;;4.28;1.75;;;;;;;22.18;47.23;101887.34;5053137;28;20566;-92
2022/06/10 08:11:51;;;;;;;4.03;2.15;;;;;;;22.30;47.27;101895.31;5037470;28;20049;-91
2022/06/10 08:14:19;;;;;;;4.05;1.70;;;;;;;22.38;47.32;101894.53;5043807;28;20041;-89
2022/06/10 08:16:46;;;;;;;3.38;1.80;;;;;;;22.49;47.42;101893.44;5039789;28;20483;-88
2022/06/10 08:19:13;;;;;;;4.53;1.73;;;;;;;22.57;46.88;101897.16;5050315;28;20053;-86
2022/06/10 08:24:28;;;;;;;3.25;1.27;;;;;;;22.79;45.66;101892.25;5044728;28;20382;-88
2022/06/10 08:26:55;;;;;;;4.10;1.63;;;;;;;22.84;45.93;101899.06;5046708;28;20083;-90
2022/06/10 08:29:21;;;;;;;3.88;1.35;;;;;;;22.93;45.46;101898.13;5034570;28;20455;-87
2022/06/10 08:31:48;;;;;;;5.15;1.50;;;;;;;23.02;45.55;101891.63;5044954;28;20049;-86
2022/06/10 08:34:15;;;;;;;5.15;1.50;;;;;;;23.10;44.93;101890.84;5041522;28;20045;-87
2022/06/10 08:36:42;;;;;;;4.35;1.40;;;;;;;23.18;45.13;101892.81;5038356;28;20068;-87
2022/06/10 08:39:09;;;;;;;3.38;1.20;;;;;;;23.26;44.63;101896.53;5040808;28;20052;-88
2022/06/10 08:41:56;;;;;;;3.17;1.27;;;;;;;23.34;43.81;101893.84;5042850;28;20169;-90
2022/06/10 08:44:34;;;;;;;3.25;1.20;;;;;;;23.43;44.48;101901.19;5033149;28;20077;-92
2022/06/10 08:47:39;;;;;;;3.25;1.15;;;;;;;23.49;43.99;101891.38;5042002;28;20095;-90
2022/06/10 08:50:19;;;;;;;2.85;1.00;;;;;;;23.56;43.66;101892.47;5037261;28;20453;-88
2022/06/10 08:53:10;;;;;;;4.28;1.30;;;;;;;23.63;43.45;101899.13;5035516;28;20049;-89
2022/06/10 08:56:03;;;;;;;3.67;1.20;;;;;;;23.67;43.41;101900.53;5037546;28;20140;-90
2022/06/10 08:58:39;;;;;;;2.47;1.20;;;;;;;23.74;42.60;101892.44;5048349;28;20491;-89
2022/06/10 09:01:16;;;;;;;2.85;1.25;;;;;;;23.78;43.08;101899.41;5048602;28;20044;-91
2022/06/10 09:03:56;;;;;;;4.80;1.20;;;;;;;23.82;42.48;101901.66;5049833;28;20045;-90
2022/06/10 09:06:31;;;;;;;2.90;1.23;;;;;;;23.84;41.99;101910.72;5048035;28;20053;-88
2022/06/10 09:09:03;;;;;;;2.88;1.20;;;;;;;23.84;42.02;101904.28;5048895;28;20507;-87
2022/06/10 09:11:43;;;;;;;4.60;1.55;;;;;;;23.84;42.06;101913.47;5041280;28;20495;-88
2022/06/10 09:14:16;;;;;;;2.92;1.15;;;;;;;23.86;41.73;101908.66;5039998;28;20156;-88
2022/06/10 09:17:03;;;;;;;2.47;1.20;;;;;;;23.83;42.72;101919.19;5052715;28;20055;-89
2022/06/10 09:19:33;;;;;;;3.60;1.15;;;;;;;23.80;42.46;101913.97;5041402;28;20546;-89
2022/06/10 09:22:31;;;;;;;3.45;1.15;;;;;;;23.81;41.97;101913.78;5038795;28;20088;-87
2022/06/10 09:25:25;;;;;;;4.30;1.13;;;;;;;23.77;41.73;101920.72;5042318;28;20040;-88
2022/06/10 09:27:57;;;;;;;3.97;1.00;;;;;;;23.75;42.00;101917.22;5022797;28;20056;-89
2022/06/10 09:30:47;;;;;;;4.88;1.40;;;;;;;23.72;42.08;101916.69;5050964;28;20072;-92
2022/06/10 09:33:34;;;;;;;3.20;1.17;;;;;;;23.71;42.16;101909.41;5049804;28;20069;-90
2022/06/10 09:36:26;;;;;;;3.75;1.15;;;;;;;23.68;42.10;101915.28;5038798;28;20050;-87
2022/06/10 09:42:44;;;;;;;2.50;1.10;;;;;;;23.63;42.30;101901.03;5034657;28;20054;-93
2022/06/10 09:45:48;;;;;;;4.03;1.80;;;;;;;23.63;42.27;101901.03;5043919;28;20057;-92
2022/06/10 09:48:35;;;;;;;2.92;1.42;;;;;;;23.61;42.91;101897.53;5041559;28;20045;-94
2022/06/10 09:51:16;;;;;;;3.42;1.65;;;;;;;23.62;42.09;101894.63;5040848;28;20048;-90
2022/06/10 09:53:56;;;;;;;3.47;1.10;;;;;;;23.62;42.57;101902.94;5045884;28;20048;-91
2022/06/10 09:56:31;;;;;;;5.07;1.27;;;;;;;23.59;43.03;101896.81;5049656;28;20491;-89
2022/06/10 09:59:03;;;;;;;5.10;1.55;;;;;;;23.62;42.30;101900.16;5033125;28;20349;-91
2022/06/10 10:01:39;;;;;;;4.40;1.63;;;;;;;23.61;42.53;101898.41;5044788;28;20060;-92
2022/06/10 10:04:18;;;;;;;4.28;1.50;;;;;;;23.61;42.46;101892.88;5048599;28;20049;-91
2022/06/10 10:07:24;;;;;;;2.35;1.23;;;;;;;23.61;42.35;101878.13;5047453;28;20053;-87
2022/06/10 10:10:14;;;;;;;2.65;1.17;;;;;;;23.59;42.64;101883.84;5040907;28;20115;-87
2022/06/10 10:13:04;;;;;;;4.68;1.40;;;;;;;23.63;42.81;101878.84;5041018;28;20048;-88
2022/06/10 10:15:49;;;;;;;3.70;1.27;;;;;;;23.66;42.65;101876.59;5043483;28;20123;-86
2022/06/10 10:18:18;;;;;;;3.92;1.33;;;;;;;23.65;43.30;101877.63;5041968;28;20164;-88
2022/06/10 10:20:58;;;;;;;3.88;1.48;;;;;;;23.70;43.27;101877.16;5049551;28;20100;-86
2022/06/10 10:23:33;;;;;;;2.42;1.35;;;;;;;23.76;42.29;101873.72;5041954;28;20045;-85
2022/06/10 10:26:11;;;;;;;3.53;1.30;;;;;;;23.78;42.74;101874.44;5055104;28;20048;-84
2022/06/10 10:28:42;;;;;;;2.70;1.05;;;;;;;23.80;42.98;101873.22;5039655;28;20045;-86
2022/06/10 10:31:25;;;;;;;3.50;1.30;;;;;;;23.85;42.52;101876.41;5044262;28;20057;-87
2022/06/10 10:33:56;;;;;;;2.72;1.17;;;;;;;23.85;42.91;101868.06;5048062;28;20044;-85
2022/06/10 10:36:30;;;;;;;3.58;1.27;;;;;;;23.93;42.34;101860.81;5067682;28;20107;-86
2022/06/10 10:38:59;;;;;;;3.97;1.20;;;;;;;23.93;42.55;101864.47;5067460;28;20442;-85
2022/06/10 10:41:38;;;;;;;2.90;1.10;;;;;;;23.97;42.38;101868.63;5067137;28;20050;-86
2022/06/10 10:44:23;;;;;;;4.05;1.50;;;;;;;23.99;42.23;101865.72;5051770;28;20052;-86
2022/06/10 10:47:00;;;;;;;3.88;1.40;;;;;;;24.02;42.38;101857.94;5056955;28;20042;-85
2022/06/10 10:49:31;;;;;;;4.90;1.30;;;;;;;24.06;42.55;101855.69;5049092;28;20075;-83
2022/06/10 10:51:58;;;;;;;3.58;1.45;;;;;;;24.08;42.78;101862.81;5065080;28;20041;-85
2022/06/10 10:54:33;;;;;;;5.07;1.65;;;;;;;24.16;42.47;101859.19;5059235;28;20037;-88
2022/06/10 10:57:12;;;;;;;4.03;1.73;;;;;;;24.19;43.12;101858.88;5064634;28;20060;-88
2022/06/10 10:59:42;;;;;;;2.58;1.10;;;;;;;24.24;42.86;101853.72;5064102;28;20067;-87
2022/06/10 11:02:47;;;;;;;2.65;1.40;;;;;;;24.25;42.29;101869.34;5056802;28;20042;-88
2022/06/10 11:05:24;;;;;;;2.65;1.30;;;;;;;24.38;41.69;101855.00;5006571;28;20078;-89
2022/06/10 11:08:12;;;;;;;3.03;1.20;;;;;;;24.43;41.98;101859.00;5030983;28;20079;-88
2022/06/10 11:11:14;;;;;;;3.33;1.20;;;;;;;24.49;42.00;101860.22;5065213;28;20049;-88
2022/06/10 11:13:52;;;;;;;3.28;1.20;;;;;;;24.53;41.23;101851.41;5056798;28;20045;-84
2022/06/10 11:16:31;;;;;;;3.55;1.15;;;;;;;24.61;41.46;101850.56;5044693;28;20083;-86
2022/06/10 11:18:58;;;;;;;3.53;1.10;;;;;;;24.62;42.16;101855.09;5041960;28;20387;-85
2022/06/10 11:21:25;;;;;;;3.67;1.15;;;;;;;24.69;41.76;101849.72;5049649;28;20076;-84
2022/06/10 11:23:55;;;;;;;2.55;1.10;;;;;;;24.77;41.84;101850.59;5041016;28;20562;-86
2022/06/10 11:26:25;;;;;;;5.32;1.45;;;;;;;24.82;41.78;101855.63;5041725;28;20078;-88
2022/06/10 11:29:00;;;;;;;2.88;1.00;;;;;;;24.90;40.59;101845.41;5041228;28;20095;-85
2022/06/10 11:31:39;;;;;;;3.22;1.02;;;;;;;24.95;41.21;101848.53;5046485;28;20049;-86
2022/06/10 11:34:32;;;;;;;5.18;1.15;;;;;;;25.03;40.77;101850.50;5049492;28;20048;-87
2022/06/10 11:36:59;;;;;;;2.03;0.93;;;;;;;25.08;41.52;101852.75;5033377;28;20059;-87
2022/06/10 11:39:34;;;;;;;3.05;1.00;;;;;;;25.17;40.67;101841.47;5047085;28;20045;-90
2022/06/10 11:42:25;;;;;;;1.90;0.95;;;;;;;25.22;40.22;101846.47;5050466;28;20045;-90
2022/06/10 11:45:07;;;;;;;3.13;1.10;;;;;;;25.29;40.01;101845.59;5047720;28;20546;-86
2022/06/10 11:47:40;;;;;;;3.53;1.20;;;;;;;25.34;40.27;101836.75;5044598;28;20067;-87
2022/06/10 11:50:20;;;;;;;1.92;1.00;;;;;;;25.43;40.49;101837.63;5044671;28;20065;-85
2022/06/10 11:53:18;;;;;;;2.65;1.15;;;;;;;25.45;40.19;101829.97;5043925;28;20418;-87
2022/06/10 11:55:49;;;;;;;2.03;1.10;;;;;;;25.53;40.69;101824.41;5037434;28;20041;-87
2022/06/10 12:01:21;;;;;;;2.15;0.93;;;;;;;25.65;39.68;101823.88;5047325;28;20466;-89
2022/06/10 12:04:03;;;;;;;2.97;0.93;;;;;;;25.70;39.67;101824.19;5043595;28;20789;-90
2022/06/10 12:06:39;;;;;;;2.90;1.10;;;;;;;25.74;39.39;101828.38;5048112;28;20054;-91
2022/06/10 12:09:32;;;;;;;2.25;1.00;;;;;;;25.76;39.58;101820.72;5054424;28;20045;-90
2022/06/10 12:12:11;;;;;;;4.05;1.10;;;;;;;25.84;38.88;101824.53;5056562;28;20052;-90
2022/06/10 12:14:47;;;;;;;4.07;1.40;;;;;;;25.88;38.72;101825.91;5044925;28;20053;-89